createdAt,value
2022-10-21T00:03:06.681Z,102078.41
2022-10-21T00:08:05.705Z,102083.34
2022-10-21T00:13:05.914Z,102085.72
2022-10-21T00:18:05.091Z,102096.16
2022-10-21T00:23:03.860Z,102082.31
2022-10-21T00:28:02.618Z,102079.66
2022-10-21T00:33:03.389Z,102072.38
2022-10-21T00:38:02.291Z,102077.66
2022-10-21T00:43:01.566Z,102071.34
2022-10-21T00:48:03.938Z,102078.44
2022-10-21T00:53:04.762Z,102084.63
2022-10-21T00:58:04.781Z,102071.03
2022-10-21T01:03:05.096Z,102081.75
2022-10-21T01:08:03.778Z,102067.75
2022-10-21T01:13:16.447Z,102070.00
2022-10-21T01:18:22.724Z,102068.75
2022-10-21T01:23:53.770Z,102068.72
2022-10-21T01:29:07.319Z,102060.91
2022-10-21T01:34:10.968Z,102063.38
2022-10-21T01:39:24.100Z,102063.00
2022-10-21T01:44:28.314Z,102072.16
2022-10-21T01:49:33.666Z,102069.22
2022-10-21T01:54:36.567Z,102073.53
2022-10-21T01:59:36.691Z,102067.78
2022-10-21T02:04:39.352Z,102070.38
2022-10-21T02:09:38.188Z,102072.09
2022-10-21T02:14:40.852Z,102071.88
2022-10-21T02:19:40.954Z,102071.19
2022-10-21T02:24:46.093Z,102070.31
2022-10-21T02:29:47.357Z,102073.75
2022-10-21T02:35:00.107Z,102085.66
2022-10-21T02:40:06.078Z,102090.41
2022-10-21T02:45:05.786Z,102093.84
2022-10-21T02:50:06.689Z,102089.66
2022-10-21T02:55:06.085Z,102089.72
2022-10-21T03:00:06.420Z,102099.59
2022-10-21T03:05:07.379Z,102097.06
2022-10-21T03:10:07.129Z,102089.47
2022-10-21T03:15:06.796Z,102095.91
2022-10-21T03:20:07.690Z,102096.88
2022-10-21T03:25:07.477Z,102095.34
2022-10-21T03:30:07.447Z,102095.59
2022-10-21T03:35:09.033Z,102096.00
2022-10-21T03:40:12.271Z,102103.84
2022-10-21T03:45:12.641Z,102086.28
2022-10-21T03:50:15.095Z,102085.50
2022-10-21T03:55:20.907Z,102083.88
2022-10-21T04:00:20.307Z,102085.75
2022-10-21T04:05:20.542Z,102079.84
2022-10-21T04:10:19.448Z,102072.94
2022-10-21T04:15:18.211Z,102074.09
2022-10-21T04:20:17.062Z,102068.91
2022-10-21T04:25:17.297Z,102071.53
2022-10-21T04:30:16.055Z,102072.56
2022-10-21T04:35:14.959Z,102067.72
2022-10-21T04:40:13.994Z,102059.97
2022-10-21T04:45:23.963Z,102076.00
2022-10-21T04:50:23.101Z,102084.41
2022-10-21T04:55:23.871Z,102078.88
2022-10-21T05:00:24.927Z,102074.44
2022-10-21T05:05:25.663Z,102089.00
2022-10-21T05:10:25.676Z,102097.09
2022-10-21T05:15:26.208Z,102097.00
2022-10-21T05:20:25.094Z,102092.13
2022-10-21T05:25:24.237Z,102098.19
2022-10-21T05:30:23.005Z,102106.28
2022-10-21T05:35:23.217Z,102101.81
2022-10-21T05:40:22.035Z,102103.44
2022-10-21T05:45:21.211Z,102112.00
2022-10-21T05:50:20.153Z,102122.28
2022-10-21T05:55:23.312Z,102128.44
2022-10-21T06:00:27.963Z,102121.47
2022-10-21T06:05:31.730Z,102124.56
2022-10-21T06:10:31.931Z,102125.72
2022-10-21T06:15:30.817Z,102121.28
2022-10-21T06:20:31.655Z,102127.75
2022-10-21T06:25:32.442Z,102127.59
2022-10-21T06:30:31.786Z,102121.13
2022-10-21T06:35:38.336Z,102133.75
2022-10-21T06:40:38.897Z,102126.59
2022-10-21T06:45:40.294Z,102125.78
2022-10-21T06:50:42.867Z,102122.19
2022-10-21T06:55:44.892Z,102124.97
2022-10-21T07:00:44.712Z,102129.50
2022-10-21T07:05:43.674Z,102116.28
2022-10-21T07:10:45.342Z,102126.00
2022-10-21T07:15:44.713Z,102119.31
2022-10-21T07:20:43.822Z,102116.53
2022-10-21T07:25:44.059Z,102100.06
2022-10-21T07:30:43.537Z,102113.50
2022-10-21T07:35:42.679Z,102101.03
2022-10-21T07:40:43.953Z,102102.78
2022-10-21T07:45:44.186Z,102102.03
2022-10-21T07:50:43.171Z,102094.13
2022-10-21T07:55:43.799Z,102097.63
2022-10-21T08:00:44.873Z,102091.63
2022-10-21T08:05:43.690Z,102088.97
2022-10-21T08:10:44.037Z,102092.16
2022-10-21T08:15:43.806Z,102088.56
2022-10-21T08:20:43.614Z,102087.97
2022-10-21T08:25:49.709Z,102094.13
2022-10-21T08:30:48.823Z,102082.13
2022-10-21T08:35:47.733Z,102080.56
2022-10-21T08:40:51.165Z,102073.47
2022-10-21T08:45:56.815Z,102065.50
2022-10-21T08:50:58.742Z,102064.16
2022-10-21T08:56:05.399Z,102057.00
2022-10-21T09:01:06.999Z,102064.22
2022-10-21T09:06:18.822Z,102062.00
2022-10-21T09:11:30.046Z,102051.19
2022-10-21T09:16:41.908Z,102038.06
2022-10-21T09:22:05.554Z,102042.34
2022-10-21T09:27:31.976Z,102045.78
2022-10-21T09:32:36.333Z,102028.63
2022-10-21T09:37:41.298Z,102029.69
2022-10-21T09:42:47.364Z,102033.34
2022-10-21T09:47:53.883Z,102023.44
2022-10-21T09:52:59.392Z,102016.16
2022-10-21T09:58:01.596Z,102006.28
2022-10-21T10:03:00.343Z,101995.53
2022-10-21T10:07:59.150Z,101987.75
2022-10-21T10:13:00.810Z,101985.66
2022-10-21T10:17:59.490Z,101987.88
2022-10-21T10:23:19.723Z,101972.25
2022-10-21T10:28:24.998Z,101957.88
2022-10-21T10:33:25.991Z,101946.19
2022-10-21T10:38:28.572Z,101944.09
2022-10-21T10:43:31.826Z,101934.34
2022-10-21T10:48:37.389Z,101932.00
2022-10-21T10:53:37.700Z,101924.94
2022-10-21T10:58:43.309Z,101921.34
2022-10-21T11:03:47.365Z,101914.69
2022-10-21T11:08:51.647Z,101920.22
2022-10-21T11:13:52.863Z,101906.31
2022-10-21T11:18:59.055Z,101896.81
2022-10-21T11:24:39.464Z,101891.94
2022-10-21T11:29:52.789Z,101888.75
2022-10-21T11:35:17.351Z,101878.41
2022-10-21T11:40:25.620Z,101883.88
2022-10-21T11:45:38.572Z,101868.22
2022-10-21T11:50:47.462Z,101864.41
2022-10-21T11:55:53.964Z,101853.13
2022-10-21T12:01:04.535Z,101840.88
2022-10-21T12:06:12.994Z,101841.38
2022-10-21T12:11:16.759Z,101842.63
2022-10-21T12:16:19.942Z,101827.53
2022-10-21T12:21:22.914Z,101822.19
2022-10-21T12:26:31.956Z,101810.13
2022-10-21T12:31:45.468Z,101797.13
2022-10-21T12:36:49.479Z,101804.00
2022-10-21T12:41:49.791Z,101797.03
2022-10-21T12:47:03.837Z,101797.16
2022-10-21T12:52:10.430Z,101789.94
2022-10-21T12:57:11.229Z,101790.28
2022-10-21T13:02:21.789Z,101795.78
2022-10-21T13:07:35.239Z,101790.72
2022-10-21T13:12:34.854Z,101786.28
2022-10-21T13:17:50.874Z,101782.97
2022-10-21T13:23:01.869Z,101783.41
2022-10-21T13:28:06.821Z,101783.56
2022-10-21T13:33:23.785Z,101777.44
2022-10-21T13:38:43.107Z,101778.00
2022-10-21T13:43:48.715Z,101780.66
2022-10-21T13:48:50.224Z,101785.06
2022-10-21T13:53:50.410Z,101777.59
2022-10-21T13:58:51.673Z,101775.13
2022-10-21T14:03:58.271Z,101777.75
2022-10-21T14:08:57.835Z,101777.03
2022-10-21T14:14:01.566Z,101779.72
2022-10-21T14:19:06.389Z,101770.50
2022-10-21T14:24:07.768Z,101773.41
2022-10-21T14:29:06.896Z,101772.53
2022-10-21T14:34:11.930Z,101777.28
2022-10-21T14:39:20.975Z,101767.50
2022-10-21T14:44:25.345Z,101771.25
2022-10-21T14:49:28.714Z,101768.00
2022-10-21T14:54:42.774Z,101769.53
2022-10-21T14:59:44.604Z,101771.06
2022-10-21T15:04:54.884Z,101771.41
2022-10-21T15:10:18.653Z,101787.91
2022-10-21T15:15:53.305Z,101781.22
2022-10-21T15:20:57.311Z,101785.78
2022-10-21T15:26:00.569Z,101790.00
2022-10-21T15:31:00.248Z,101797.06
2022-10-21T15:36:05.223Z,101799.00
2022-10-21T15:41:04.680Z,101810.72
2022-10-21T15:46:03.526Z,101803.28
2022-10-21T15:51:03.763Z,101806.28
2022-10-21T15:56:02.819Z,101810.41
2022-10-21T16:01:01.618Z,101815.97
2022-10-21T16:06:00.609Z,101803.53
2022-10-21T16:11:00.985Z,101809.38
2022-10-21T16:15:59.867Z,101814.16
2022-10-21T16:20:59.035Z,101814.34
2022-10-21T16:25:58.187Z,101828.59
2022-10-21T16:30:59.318Z,101818.75
2022-10-21T16:35:58.129Z,101814.69
2022-10-21T16:40:57.015Z,101819.97
2022-10-21T16:45:55.786Z,101813.72
2022-10-21T16:50:58.006Z,101821.69
2022-10-21T16:55:58.123Z,101820.63
2022-10-21T17:00:57.806Z,101816.63
2022-10-21T17:05:58.179Z,101823.66
2022-10-21T17:10:57.193Z,101819.69
2022-10-21T17:15:57.989Z,101818.84
2022-10-21T17:20:58.324Z,101828.59
2022-10-21T17:25:58.369Z,101826.56
2022-10-21T17:30:57.897Z,101816.22
2022-10-21T17:36:00.782Z,101818.53
2022-10-21T17:40:59.625Z,101811.31
2022-10-21T17:45:58.918Z,101810.66
2022-10-21T17:51:04.673Z,101813.59
2022-10-21T17:56:07.059Z,101810.72
2022-10-21T18:01:09.257Z,101820.38
2022-10-21T18:06:23.229Z,101820.50
2022-10-21T18:11:24.282Z,101813.44
2022-10-21T18:16:26.390Z,101813.47
2022-10-21T18:21:26.682Z,101822.19
2022-10-21T18:26:28.258Z,101819.72
2022-10-21T18:31:30.950Z,101818.59
2022-10-21T18:36:31.389Z,101830.00
2022-10-21T18:41:35.898Z,101828.72
2022-10-21T18:46:39.240Z,101833.38
2022-10-21T18:51:39.934Z,101830.03
2022-10-21T18:56:38.834Z,101834.66
2022-10-21T19:01:38.005Z,101841.09
2022-10-21T19:06:43.827Z,101837.13
2022-10-21T19:11:46.260Z,101834.72
2022-10-21T19:16:47.485Z,101835.00
2022-10-21T19:21:51.611Z,101844.44
2022-10-21T19:26:54.342Z,101831.00
2022-10-21T19:31:55.701Z,101845.38
2022-10-21T19:36:57.234Z,101844.16
2022-10-21T19:41:56.345Z,101842.41
2022-10-21T19:46:55.266Z,101846.13
2022-10-21T19:51:56.630Z,101832.78
2022-10-21T19:56:57.090Z,101825.72
2022-10-21T20:01:56.121Z,101825.28
2022-10-21T20:06:55.299Z,101822.09
2022-10-21T20:11:57.710Z,101816.72
2022-10-21T20:16:56.818Z,101811.38
2022-10-21T20:21:55.899Z,101818.28
2022-10-21T20:26:58.417Z,101798.88
2022-10-21T20:32:01.558Z,101811.19
2022-10-21T20:37:00.362Z,101804.25
2022-10-21T20:41:59.290Z,101814.00
2022-10-21T20:46:58.177Z,101804.25
2022-10-21T20:51:58.535Z,101798.88
2022-10-21T20:56:57.325Z,101802.44
2022-10-21T21:01:56.230Z,101790.56
2022-10-21T21:06:55.336Z,101786.94
2022-10-21T21:11:55.621Z,101778.28
2022-10-21T21:16:54.509Z,101768.31
2022-10-21T21:21:53.736Z,101764.91
2022-10-21T21:26:52.792Z,101767.72
2022-10-21T21:31:53.148Z,101771.75
2022-10-21T21:36:52.076Z,101771.13
2022-10-21T21:41:51.006Z,101772.84
2022-10-21T21:46:50.137Z,101776.72
2022-10-21T21:51:50.345Z,101772.94
2022-10-21T21:56:52.054Z,101773.56
2022-10-21T22:01:56.278Z,101774.41
2022-10-21T22:07:01.834Z,101774.69
2022-10-21T22:12:01.744Z,101773.69
2022-10-21T22:17:00.589Z,101772.69
2022-10-21T22:22:00.920Z,101770.97
2022-10-21T22:26:59.726Z,101766.22
2022-10-21T22:31:58.475Z,101764.56
2022-10-21T22:36:57.331Z,101753.22
2022-10-21T22:41:57.682Z,101752.28
2022-10-21T22:46:56.480Z,101758.41
2022-10-21T22:51:55.278Z,101757.81
2022-10-21T22:56:54.059Z,101751.84
2022-10-21T23:01:54.825Z,101750.81
2022-10-21T23:06:53.771Z,101752.13
2022-10-21T23:11:52.773Z,101749.72
2022-10-21T23:16:52.444Z,101757.00
2022-10-21T23:21:52.611Z,101757.72
2022-10-21T23:26:51.539Z,101761.22
2022-10-21T23:31:50.397Z,101765.00
2022-10-21T23:36:49.371Z,101753.66
2022-10-21T23:41:49.682Z,101749.38
2022-10-21T23:46:48.512Z,101746.09
2022-10-21T23:51:47.370Z,101743.75
2022-10-21T23:56:46.676Z,101743.81
